sensor_id;sensor_type;location;lat;lon;timestamp;P1;durP1;ratioP1;P2;durP2;ratioP2
33716;SDS011;20046;50.746;7.072;2024-03-02T00:01:05;4.45;;;2.50;;
33716;SDS011;20046;50.746;7.072;2024-03-02T00:03:31;3.90;;;2.30;;
33716;SDS011;20046;50.746;7.072;2024-03-02T00:05:57;5.75;;;2.35;;
33716;SDS011;20046;50.746;7.072;2024-03-02T00:08:23;3.80;;;2.28;;
33716;SDS011;20046;50.746;7.072;2024-03-02T00:10:59;4.55;;;2.17;;
33716;SDS011;20046;50.746;7.072;2024-03-02T00:13:27;2.47;;;1.92;;
33716;SDS011;20046;50.746;7.072;2024-03-02T00:15:55;3.67;;;2.20;;
33716;SDS011;20046;50.746;7.072;2024-03-02T00:18:25;4.22;;;2.20;;
33716;SDS011;20046;50.746;7.072;2024-03-02T00:20:58;3.25;;;2.15;;
33716;SDS011;20046;50.746;7.072;2024-03-02T00:23:34;3.63;;;2.38;;
33716;SDS011;20046;50.746;7.072;2024-03-02T00:26:00;3.65;;;1.95;;
33716;SDS011;20046;50.746;7.072;2024-03-02T00:33:33;2.95;;;2.10;;
33716;SDS011;20046;50.746;7.072;2024-03-02T00:36:07;2.88;;;2.15;;
33716;SDS011;20046;50.746;7.072;2024-03-02T00:38:33;2.97;;;2.22;;
33716;SDS011;20046;50.746;7.072;2024-03-02T00:41:05;3.50;;;2.38;;
33716;SDS011;20046;50.746;7.072;2024-03-02T00:46:06;2.72;;;2.05;;
33716;SDS011;20046;50.746;7.072;2024-03-02T00:48:32;3.83;;;2.08;;
33716;SDS011;20046;50.746;7.072;2024-03-02T00:51:01;3.58;;;2.20;;
33716;SDS011;20046;50.746;7.072;2024-03-02T00:53:30;4.28;;;2.13;;
33716;SDS011;20046;50.746;7.072;2024-03-02T00:55:57;3.08;;;1.88;;
33716;SDS011;20046;50.746;7.072;2024-03-02T00:58:24;4.43;;;2.55;;
33716;SDS011;20046;50.746;7.072;2024-03-02T01:00:50;3.53;;;2.13;;
33716;SDS011;20046;50.746;7.072;2024-03-02T01:03:15;5.15;;;2.58;;
33716;SDS011;20046;50.746;7.072;2024-03-02T01:05:44;4.90;;;1.90;;
33716;SDS011;20046;50.746;7.072;2024-03-02T01:08:10;4.22;;;1.83;;
33716;SDS011;20046;50.746;7.072;2024-03-02T01:10:36;4.75;;;2.35;;
33716;SDS011;20046;50.746;7.072;2024-03-02T01:13:02;4.45;;;1.95;;
33716;SDS011;20046;50.746;7.072;2024-03-02T01:15:27;5.35;;;1.98;;
33716;SDS011;20046;50.746;7.072;2024-03-02T01:17:53;3.58;;;2.00;;
33716;SDS011;20046;50.746;7.072;2024-03-02T01:20:19;3.65;;;2.03;;
33716;SDS011;20046;50.746;7.072;2024-03-02T01:22:45;4.28;;;2.10;;
33716;SDS011;20046;50.746;7.072;2024-03-02T01:25:10;5.25;;;2.00;;
33716;SDS011;20046;50.746;7.072;2024-03-02T01:27:36;3.50;;;1.80;;
33716;SDS011;20046;50.746;7.072;2024-03-02T01:30:01;4.35;;;2.10;;
33716;SDS011;20046;50.746;7.072;2024-03-02T01:32:27;4.70;;;1.88;;
33716;SDS011;20046;50.746;7.072;2024-03-02T01:34:52;5.93;;;1.88;;
33716;SDS011;20046;50.746;7.072;2024-03-02T01:37:18;2.05;;;1.55;;
33716;SDS011;20046;50.746;7.072;2024-03-02T01:39:43;2.17;;;1.50;;
33716;SDS011;20046;50.746;7.072;2024-03-02T01:42:09;2.97;;;1.80;;
33716;SDS011;20046;50.746;7.072;2024-03-02T01:44:36;3.22;;;2.03;;
33716;SDS011;20046;50.746;7.072;2024-03-02T01:47:01;2.42;;;1.48;;
33716;SDS011;20046;50.746;7.072;2024-03-02T01:49:27;3.90;;;1.70;;
33716;SDS011;20046;50.746;7.072;2024-03-02T01:51:53;4.68;;;1.70;;
33716;SDS011;20046;50.746;7.072;2024-03-02T01:54:18;2.92;;;1.60;;
33716;SDS011;20046;50.746;7.072;2024-03-02T01:56:44;3.85;;;2.10;;
33716;SDS011;20046;50.746;7.072;2024-03-02T01:59:10;6.68;;;1.88;;
33716;SDS011;20046;50.746;7.072;2024-03-02T02:01:38;2.65;;;1.73;;
33716;SDS011;20046;50.746;7.072;2024-03-02T02:04:03;2.90;;;1.83;;
33716;SDS011;20046;50.746;7.072;2024-03-02T02:06:29;3.63;;;1.98;;
33716;SDS011;20046;50.746;7.072;2024-03-02T02:08:54;2.17;;;1.60;;
33716;SDS011;20046;50.746;7.072;2024-03-02T02:11:20;2.75;;;1.70;;
33716;SDS011;20046;50.746;7.072;2024-03-02T02:13:46;1.77;;;1.27;;
33716;SDS011;20046;50.746;7.072;2024-03-02T02:16:11;3.55;;;1.80;;
33716;SDS011;20046;50.746;7.072;2024-03-02T02:18:37;2.05;;;1.45;;
33716;SDS011;20046;50.746;7.072;2024-03-02T02:21:03;1.92;;;1.48;;
33716;SDS011;20046;50.746;7.072;2024-03-02T02:23:28;3.58;;;1.90;;
33716;SDS011;20046;50.746;7.072;2024-03-02T02:25:54;5.35;;;1.77;;
33716;SDS011;20046;50.746;7.072;2024-03-02T02:28:19;2.53;;;1.98;;
33716;SDS011;20046;50.746;7.072;2024-03-02T02:30:45;3.83;;;1.83;;
33716;SDS011;20046;50.746;7.072;2024-03-02T02:33:11;4.97;;;2.20;;
33716;SDS011;20046;50.746;7.072;2024-03-02T02:35:36;2.92;;;1.45;;
33716;SDS011;20046;50.746;7.072;2024-03-02T02:38:02;2.75;;;1.65;;
33716;SDS011;20046;50.746;7.072;2024-03-02T02:40:29;4.78;;;1.83;;
33716;SDS011;20046;50.746;7.072;2024-03-02T02:42:55;4.10;;;1.75;;
33716;SDS011;20046;50.746;7.072;2024-03-02T02:45:22;5.40;;;1.98;;
33716;SDS011;20046;50.746;7.072;2024-03-02T02:47:48;4.10;;;1.90;;
33716;SDS011;20046;50.746;7.072;2024-03-02T02:50:14;6.80;;;1.80;;
33716;SDS011;20046;50.746;7.072;2024-03-02T02:52:40;3.55;;;2.15;;
33716;SDS011;20046;50.746;7.072;2024-03-02T02:55:07;2.78;;;1.70;;
33716;SDS011;20046;50.746;7.072;2024-03-02T02:57:37;2.53;;;1.67;;
33716;SDS011;20046;50.746;7.072;2024-03-02T03:00:06;3.15;;;1.63;;
33716;SDS011;20046;50.746;7.072;2024-03-02T03:02:36;4.95;;;1.90;;
33716;SDS011;20046;50.746;7.072;2024-03-02T03:05:02;2.13;;;1.60;;
33716;SDS011;20046;50.746;7.072;2024-03-02T03:07:28;3.30;;;1.65;;
33716;SDS011;20046;50.746;7.072;2024-03-02T03:09:54;4.35;;;1.80;;
33716;SDS011;20046;50.746;7.072;2024-03-02T03:12:19;2.95;;;1.60;;
33716;SDS011;20046;50.746;7.072;2024-03-02T03:14:45;3.22;;;1.80;;
33716;SDS011;20046;50.746;7.072;2024-03-02T03:17:11;4.93;;;1.80;;
33716;SDS011;20046;50.746;7.072;2024-03-02T03:19:37;3.15;;;1.70;;
33716;SDS011;20046;50.746;7.072;2024-03-02T03:22:03;2.60;;;1.73;;
33716;SDS011;20046;50.746;7.072;2024-03-02T03:24:29;3.55;;;1.90;;
33716;SDS011;20046;50.746;7.072;2024-03-02T03:26:55;3.33;;;1.50;;
33716;SDS011;20046;50.746;7.072;2024-03-02T03:29:20;4.57;;;1.70;;
33716;SDS011;20046;50.746;7.072;2024-03-02T03:31:46;3.67;;;1.70;;
33716;SDS011;20046;50.746;7.072;2024-03-02T03:34:11;2.80;;;1.67;;
33716;SDS011;20046;50.746;7.072;2024-03-02T03:36:40;1.92;;;1.73;;
33716;SDS011;20046;50.746;7.072;2024-03-02T03:39:06;3.30;;;1.70;;
33716;SDS011;20046;50.746;7.072;2024-03-02T03:41:32;1.65;;;1.35;;
33716;SDS011;20046;50.746;7.072;2024-03-02T03:43:57;3.08;;;1.70;;
33716;SDS011;20046;50.746;7.072;2024-03-02T03:46:23;2.13;;;1.60;;
33716;SDS011;20046;50.746;7.072;2024-03-02T03:48:49;3.42;;;1.80;;
33716;SDS011;20046;50.746;7.072;2024-03-02T03:51:14;5.10;;;1.90;;
33716;SDS011;20046;50.746;7.072;2024-03-02T03:53:40;5.10;;;1.77;;
33716;SDS011;20046;50.746;7.072;2024-03-02T03:56:05;3.78;;;1.60;;
33716;SDS011;20046;50.746;7.072;2024-03-02T03:58:31;2.28;;;1.58;;
33716;SDS011;20046;50.746;7.072;2024-03-02T04:00:57;4.05;;;1.60;;
33716;SDS011;20046;50.746;7.072;2024-03-02T04:03:22;3.78;;;1.65;;
33716;SDS011;20046;50.746;7.072;2024-03-02T04:05:48;3.05;;;1.42;;
33716;SDS011;20046;50.746;7.072;2024-03-02T04:08:13;2.38;;;1.50;;
33716;SDS011;20046;50.746;7.072;2024-03-02T04:10:39;2.35;;;1.55;;
33716;SDS011;20046;50.746;7.072;2024-03-02T04:13:05;6.47;;;1.70;;
33716;SDS011;20046;50.746;7.072;2024-03-02T04:15:31;3.78;;;2.00;;
33716;SDS011;20046;50.746;7.072;2024-03-02T04:17:56;2.58;;;1.60;;
33716;SDS011;20046;50.746;7.072;2024-03-02T04:20:22;3.25;;;1.83;;
33716;SDS011;20046;50.746;7.072;2024-03-02T04:22:47;4.03;;;1.73;;
33716;SDS011;20046;50.746;7.072;2024-03-02T04:25:13;2.08;;;1.80;;
33716;SDS011;20046;50.746;7.072;2024-03-02T04:27:38;5.78;;;1.80;;
33716;SDS011;20046;50.746;7.072;2024-03-02T04:30:04;2.67;;;1.60;;
33716;SDS011;20046;50.746;7.072;2024-03-02T04:32:30;4.28;;;1.73;;
33716;SDS011;20046;50.746;7.072;2024-03-02T04:34:56;4.25;;;1.60;;
33716;SDS011;20046;50.746;7.072;2024-03-02T04:37:22;2.90;;;1.67;;
33716;SDS011;20046;50.746;7.072;2024-03-02T04:39:48;4.25;;;2.10;;
33716;SDS011;20046;50.746;7.072;2024-03-02T04:42:13;1.92;;;1.70;;
33716;SDS011;20046;50.746;7.072;2024-03-02T04:44:39;2.80;;;1.88;;
33716;SDS011;20046;50.746;7.072;2024-03-02T04:47:04;3.78;;;1.80;;
33716;SDS011;20046;50.746;7.072;2024-03-02T04:49:30;3.83;;;1.95;;
33716;SDS011;20046;50.746;7.072;2024-03-02T04:51:56;6.85;;;1.90;;
33716;SDS011;20046;50.746;7.072;2024-03-02T04:54:24;4.07;;;1.98;;
33716;SDS011;20046;50.746;7.072;2024-03-02T04:56:50;3.22;;;1.77;;
33716;SDS011;20046;50.746;7.072;2024-03-02T04:59:16;2.40;;;1.70;;
33716;SDS011;20046;50.746;7.072;2024-03-02T05:01:42;5.00;;;2.03;;
33716;SDS011;20046;50.746;7.072;2024-03-02T05:04:09;4.13;;;1.92;;
33716;SDS011;20046;50.746;7.072;2024-03-02T05:06:37;3.28;;;1.75;;
33716;SDS011;20046;50.746;7.072;2024-03-02T05:09:04;2.70;;;1.83;;
33716;SDS011;20046;50.746;7.072;2024-03-02T05:11:29;2.63;;;1.70;;
33716;SDS011;20046;50.746;7.072;2024-03-02T05:14:07;3.42;;;1.50;;
33716;SDS011;20046;50.746;7.072;2024-03-02T05:16:33;3.72;;;2.00;;
33716;SDS011;20046;50.746;7.072;2024-03-02T05:18:59;5.63;;;2.20;;
33716;SDS011;20046;50.746;7.072;2024-03-02T05:21:25;2.72;;;1.60;;
33716;SDS011;20046;50.746;7.072;2024-03-02T05:23:51;2.67;;;1.90;;
33716;SDS011;20046;50.746;7.072;2024-03-02T05:26:16;5.88;;;2.00;;
33716;SDS011;20046;50.746;7.072;2024-03-02T05:28:42;4.07;;;1.75;;
33716;SDS011;20046;50.746;7.072;2024-03-02T05:31:11;3.47;;;1.83;;
33716;SDS011;20046;50.746;7.072;2024-03-02T05:33:39;2.47;;;1.58;;
33716;SDS011;20046;50.746;7.072;2024-03-02T05:36:05;5.75;;;1.90;;
33716;SDS011;20046;50.746;7.072;2024-03-02T05:38:31;5.28;;;1.80;;
33716;SDS011;20046;50.746;7.072;2024-03-02T05:40:57;2.67;;;1.70;;
33716;SDS011;20046;50.746;7.072;2024-03-02T05:43:22;5.00;;;2.05;;
33716;SDS011;20046;50.746;7.072;2024-03-02T05:45:48;5.15;;;1.88;;
33716;SDS011;20046;50.746;7.072;2024-03-02T05:48:14;4.22;;;1.67;;
33716;SDS011;20046;50.746;7.072;2024-03-02T05:50:40;5.03;;;2.13;;
33716;SDS011;20046;50.746;7.072;2024-03-02T05:53:05;7.03;;;2.20;;
33716;SDS011;20046;50.746;7.072;2024-03-02T05:55:31;3.78;;;1.88;;
33716;SDS011;20046;50.746;7.072;2024-03-02T05:57:57;3.92;;;2.20;;
33716;SDS011;20046;50.746;7.072;2024-03-02T06:00:31;3.60;;;1.80;;
33716;SDS011;20046;50.746;7.072;2024-03-02T06:02:57;3.15;;;1.90;;
33716;SDS011;20046;50.746;7.072;2024-03-02T06:05:23;4.03;;;1.95;;
33716;SDS011;20046;50.746;7.072;2024-03-02T06:07:49;5.75;;;2.10;;
33716;SDS011;20046;50.746;7.072;2024-03-02T06:10:15;4.30;;;1.83;;
33716;SDS011;20046;50.746;7.072;2024-03-02T06:12:41;4.00;;;2.35;;
33716;SDS011;20046;50.746;7.072;2024-03-02T06:15:06;5.68;;;2.28;;
33716;SDS011;20046;50.746;7.072;2024-03-02T06:17:32;3.97;;;1.98;;
33716;SDS011;20046;50.746;7.072;2024-03-02T06:20:00;2.53;;;1.70;;
33716;SDS011;20046;50.746;7.072;2024-03-02T06:22:25;5.40;;;2.47;;
33716;SDS011;20046;50.746;7.072;2024-03-02T06:24:51;3.80;;;2.00;;
33716;SDS011;20046;50.746;7.072;2024-03-02T06:27:16;6.07;;;2.60;;
33716;SDS011;20046;50.746;7.072;2024-03-02T06:29:42;4.38;;;2.47;;
33716;SDS011;20046;50.746;7.072;2024-03-02T06:32:08;5.80;;;2.70;;
33716;SDS011;20046;50.746;7.072;2024-03-02T06:34:33;5.30;;;2.80;;
33716;SDS011;20046;50.746;7.072;2024-03-02T06:36:59;15.73;;;3.45;;
33716;SDS011;20046;50.746;7.072;2024-03-02T06:39:24;6.05;;;2.70;;
33716;SDS011;20046;50.746;7.072;2024-03-02T06:41:50;6.90;;;3.00;;
33716;SDS011;20046;50.746;7.072;2024-03-02T06:44:16;5.43;;;2.30;;
33716;SDS011;20046;50.746;7.072;2024-03-02T06:46:42;7.30;;;3.13;;
33716;SDS011;20046;50.746;7.072;2024-03-02T06:49:07;4.82;;;2.67;;
33716;SDS011;20046;50.746;7.072;2024-03-02T06:51:35;6.35;;;3.05;;
33716;SDS011;20046;50.746;7.072;2024-03-02T06:54:01;9.52;;;3.28;;
33716;SDS011;20046;50.746;7.072;2024-03-02T06:56:26;6.32;;;3.17;;
33716;SDS011;20046;50.746;7.072;2024-03-02T06:58:52;6.13;;;3.13;;
33716;SDS011;20046;50.746;7.072;2024-03-02T07:01:17;4.82;;;2.78;;
33716;SDS011;20046;50.746;7.072;2024-03-02T07:03:43;7.13;;;3.20;;
33716;SDS011;20046;50.746;7.072;2024-03-02T07:06:09;6.43;;;3.08;;
33716;SDS011;20046;50.746;7.072;2024-03-02T07:08:34;6.63;;;3.25;;
33716;SDS011;20046;50.746;7.072;2024-03-02T07:11:00;5.65;;;3.60;;
33716;SDS011;20046;50.746;7.072;2024-03-02T07:13:25;3.83;;;2.55;;
33716;SDS011;20046;50.746;7.072;2024-03-02T07:15:51;6.85;;;2.78;;
33716;SDS011;20046;50.746;7.072;2024-03-02T07:18:20;7.03;;;3.05;;
33716;SDS011;20046;50.746;7.072;2024-03-02T07:20:46;7.18;;;2.67;;
33716;SDS011;20046;50.746;7.072;2024-03-02T07:23:11;5.85;;;2.65;;
33716;SDS011;20046;50.746;7.072;2024-03-02T07:25:37;6.47;;;3.08;;
33716;SDS011;20046;50.746;7.072;2024-03-02T07:28:02;4.90;;;2.97;;
33716;SDS011;20046;50.746;7.072;2024-03-02T07:30:29;4.70;;;2.63;;
33716;SDS011;20046;50.746;7.072;2024-03-02T07:32:54;3.95;;;2.13;;
33716;SDS011;20046;50.746;7.072;2024-03-02T07:35:20;3.80;;;2.53;;
33716;SDS011;20046;50.746;7.072;2024-03-02T07:37:47;4.00;;;2.35;;
33716;SDS011;20046;50.746;7.072;2024-03-02T07:40:12;5.15;;;2.53;;
33716;SDS011;20046;50.746;7.072;2024-03-02T07:42:39;6.65;;;2.72;;
33716;SDS011;20046;50.746;7.072;2024-03-02T07:45:05;4.60;;;2.50;;
33716;SDS011;20046;50.746;7.072;2024-03-02T07:47:32;4.95;;;2.50;;
33716;SDS011;20046;50.746;7.072;2024-03-02T07:50:00;4.07;;;2.78;;
33716;SDS011;20046;50.746;7.072;2024-03-02T07:52:26;5.18;;;2.60;;
33716;SDS011;20046;50.746;7.072;2024-03-02T07:54:52;4.88;;;2.80;;
33716;SDS011;20046;50.746;7.072;2024-03-02T07:57:17;5.72;;;3.05;;
33716;SDS011;20046;50.746;7.072;2024-03-02T07:59:43;6.53;;;3.20;;
33716;SDS011;20046;50.746;7.072;2024-03-02T08:02:08;4.68;;;3.10;;
33716;SDS011;20046;50.746;7.072;2024-03-02T08:04:35;6.18;;;3.40;;
33716;SDS011;20046;50.746;7.072;2024-03-02T08:07:01;7.28;;;2.85;;
33716;SDS011;20046;50.746;7.072;2024-03-02T08:09:27;6.30;;;2.83;;
33716;SDS011;20046;50.746;7.072;2024-03-02T08:11:53;9.13;;;2.75;;
33716;SDS011;20046;50.746;7.072;2024-03-02T08:14:19;4.88;;;3.13;;
33716;SDS011;20046;50.746;7.072;2024-03-02T08:16:44;6.97;;;2.70;;
33716;SDS011;20046;50.746;7.072;2024-03-02T08:19:11;8.48;;;3.58;;
33716;SDS011;20046;50.746;7.072;2024-03-02T08:21:37;7.05;;;2.92;;
33716;SDS011;20046;50.746;7.072;2024-03-02T08:24:03;6.07;;;2.63;;
33716;SDS011;20046;50.746;7.072;2024-03-02T08:26:29;4.30;;;2.65;;
33716;SDS011;20046;50.746;7.072;2024-03-02T08:28:56;7.95;;;2.67;;
33716;SDS011;20046;50.746;7.072;2024-03-02T08:31:22;7.85;;;2.55;;
33716;SDS011;20046;50.746;7.072;2024-03-02T08:33:48;6.05;;;2.75;;
33716;SDS011;20046;50.746;7.072;2024-03-02T08:36:13;6.03;;;2.53;;
33716;SDS011;20046;50.746;7.072;2024-03-02T08:38:40;4.00;;;2.42;;
33716;SDS011;20046;50.746;7.072;2024-03-02T08:41:06;5.78;;;2.25;;
33716;SDS011;20046;50.746;7.072;2024-03-02T08:43:32;7.90;;;2.63;;
33716;SDS011;20046;50.746;7.072;2024-03-02T08:45:57;6.57;;;2.70;;
33716;SDS011;20046;50.746;7.072;2024-03-02T08:48:23;5.10;;;2.65;;
33716;SDS011;20046;50.746;7.072;2024-03-02T08:50:49;7.13;;;2.50;;
33716;SDS011;20046;50.746;7.072;2024-03-02T08:53:14;4.80;;;2.47;;
33716;SDS011;20046;50.746;7.072;2024-03-02T08:55:44;6.60;;;2.83;;
33716;SDS011;20046;50.746;7.072;2024-03-02T08:58:10;5.10;;;2.10;;
33716;SDS011;20046;50.746;7.072;2024-03-02T09:00:36;7.07;;;2.50;;
33716;SDS011;20046;50.746;7.072;2024-03-02T09:03:02;4.38;;;2.20;;
33716;SDS011;20046;50.746;7.072;2024-03-02T09:05:28;5.10;;;2.33;;
33716;SDS011;20046;50.746;7.072;2024-03-02T09:07:53;4.88;;;2.67;;
33716;SDS011;20046;50.746;7.072;2024-03-02T09:10:19;5.80;;;2.58;;
33716;SDS011;20046;50.746;7.072;2024-03-02T09:12:44;3.38;;;2.10;;
33716;SDS011;20046;50.746;7.072;2024-03-02T09:15:10;5.40;;;2.50;;
33716;SDS011;20046;50.746;7.072;2024-03-02T09:17:36;14.68;;;3.50;;
33716;SDS011;20046;50.746;7.072;2024-03-02T09:20:01;6.13;;;2.63;;
33716;SDS011;20046;50.746;7.072;2024-03-02T09:22:29;3.95;;;2.13;;
33716;SDS011;20046;50.746;7.072;2024-03-02T09:24:55;6.25;;;2.42;;
33716;SDS011;20046;50.746;7.072;2024-03-02T09:27:20;4.10;;;2.40;;
33716;SDS011;20046;50.746;7.072;2024-03-02T09:29:47;5.38;;;2.17;;
33716;SDS011;20046;50.746;7.072;2024-03-02T09:32:13;7.43;;;2.70;;
33716;SDS011;20046;50.746;7.072;2024-03-02T09:34:39;5.32;;;2.38;;
33716;SDS011;20046;50.746;7.072;2024-03-02T09:37:05;3.67;;;2.10;;
33716;SDS011;20046;50.746;7.072;2024-03-02T09:39:31;5.40;;;2.20;;
33716;SDS011;20046;50.746;7.072;2024-03-02T09:41:57;6.32;;;2.78;;
33716;SDS011;20046;50.746;7.072;2024-03-02T09:44:24;5.00;;;2.30;;
33716;SDS011;20046;50.746;7.072;2024-03-02T09:46:51;4.53;;;2.38;;
33716;SDS011;20046;50.746;7.072;2024-03-02T09:49:16;9.23;;;2.47;;
33716;SDS011;20046;50.746;7.072;2024-03-02T09:51:45;5.60;;;2.50;;
33716;SDS011;20046;50.746;7.072;2024-03-02T09:54:12;5.03;;;2.53;;
33716;SDS011;20046;50.746;7.072;2024-03-02T09:56:38;7.40;;;2.50;;
33716;SDS011;20046;50.746;7.072;2024-03-02T09:59:04;3.15;;;1.98;;
33716;SDS011;20046;50.746;7.072;2024-03-02T10:01:30;6.65;;;2.33;;
33716;SDS011;20046;50.746;7.072;2024-03-02T10:03:58;5.45;;;2.60;;
33716;SDS011;20046;50.746;7.072;2024-03-02T10:06:25;3.22;;;2.15;;
33716;SDS011;20046;50.746;7.072;2024-03-02T10:08:52;4.10;;;2.20;;
33716;SDS011;20046;50.746;7.072;2024-03-02T10:11:31;7.72;;;2.45;;
33716;SDS011;20046;50.746;7.072;2024-03-02T10:14:12;4.55;;;1.95;;
33716;SDS011;20046;50.746;7.072;2024-03-02T10:19:24;7.93;;;2.33;;
33716;SDS011;20046;50.746;7.072;2024-03-02T10:21:52;6.57;;;2.05;;
33716;SDS011;20046;50.746;7.072;2024-03-02T10:24:19;4.60;;;2.50;;
33716;SDS011;20046;50.746;7.072;2024-03-02T10:26:46;6.03;;;2.45;;
33716;SDS011;20046;50.746;7.072;2024-03-02T10:29:12;3.33;;;2.10;;
33716;SDS011;20046;50.746;7.072;2024-03-02T10:31:38;5.50;;;2.42;;
33716;SDS011;20046;50.746;7.072;2024-03-02T10:34:09;3.55;;;2.10;;
33716;SDS011;20046;50.746;7.072;2024-03-02T10:36:36;2.70;;;2.05;;
33716;SDS011;20046;50.746;7.072;2024-03-02T10:39:02;4.93;;;2.15;;
33716;SDS011;20046;50.746;7.072;2024-03-02T10:41:29;3.47;;;2.20;;
33716;SDS011;20046;50.746;7.072;2024-03-02T10:44:04;2.53;;;2.08;;
33716;SDS011;20046;50.746;7.072;2024-03-02T10:46:35;5.82;;;2.03;;
33716;SDS011;20046;50.746;7.072;2024-03-02T10:49:02;5.45;;;2.30;;
33716;SDS011;20046;50.746;7.072;2024-03-02T10:51:30;3.92;;;2.28;;
33716;SDS011;20046;50.746;7.072;2024-03-02T10:53:58;5.18;;;2.33;;
33716;SDS011;20046;50.746;7.072;2024-03-02T11:01:50;3.63;;;1.95;;
33716;SDS011;20046;50.746;7.072;2024-03-02T11:04:18;3.70;;;2.30;;
33716;SDS011;20046;50.746;7.072;2024-03-02T11:06:51;3.83;;;2.15;;
33716;SDS011;20046;50.746;7.072;2024-03-02T11:09:20;6.82;;;2.40;;
33716;SDS011;20046;50.746;7.072;2024-03-02T11:12:03;4.85;;;1.98;;
33716;SDS011;20046;50.746;7.072;2024-03-02T11:14:37;4.30;;;2.05;;
33716;SDS011;20046;50.746;7.072;2024-03-02T11:17:08;4.05;;;2.50;;
33716;SDS011;20046;50.746;7.072;2024-03-02T11:19:34;4.45;;;2.65;;
33716;SDS011;20046;50.746;7.072;2024-03-02T11:22:02;4.90;;;2.50;;
33716;SDS011;20046;50.746;7.072;2024-03-02T11:24:28;5.82;;;2.25;;
33716;SDS011;20046;50.746;7.072;2024-03-02T11:26:58;4.35;;;2.13;;
33716;SDS011;20046;50.746;7.072;2024-03-02T11:34:43;3.92;;;2.10;;
33716;SDS011;20046;50.746;7.072;2024-03-02T11:37:14;2.78;;;1.73;;
33716;SDS011;20046;50.746;7.072;2024-03-02T11:39:42;4.10;;;1.90;;
33716;SDS011;20046;50.746;7.072;2024-03-02T11:42:11;3.28;;;1.60;;
33716;SDS011;20046;50.746;7.072;2024-03-02T11:44:39;4.80;;;1.65;;
33716;SDS011;20046;50.746;7.072;2024-03-02T11:47:08;3.38;;;1.52;;
33716;SDS011;20046;50.746;7.072;2024-03-02T11:49:36;4.25;;;1.50;;
33716;SDS011;20046;50.746;7.072;2024-03-02T11:52:06;5.00;;;1.48;;
33716;SDS011;20046;50.746;7.072;2024-03-02T11:54:34;2.70;;;1.42;;
33716;SDS011;20046;50.746;7.072;2024-03-02T11:57:02;3.42;;;1.65;;
33716;SDS011;20046;50.746;7.072;2024-03-02T11:59:28;2.45;;;1.52;;
33716;SDS011;20046;50.746;7.072;2024-03-02T12:01:56;2.08;;;1.50;;
33716;SDS011;20046;50.746;7.072;2024-03-02T12:04:23;2.88;;;1.30;;
33716;SDS011;20046;50.746;7.072;2024-03-02T12:06:55;2.22;;;1.30;;
33716;SDS011;20046;50.746;7.072;2024-03-02T12:09:28;1.85;;;1.13;;
33716;SDS011;20046;50.746;7.072;2024-03-02T12:14:29;3.50;;;1.52;;
33716;SDS011;20046;50.746;7.072;2024-03-02T12:16:55;4.00;;;1.45;;
33716;SDS011;20046;50.746;7.072;2024-03-02T12:19:21;6.00;;;2.15;;
33716;SDS011;20046;50.746;7.072;2024-03-02T12:21:46;6.72;;;2.47;;
33716;SDS011;20046;50.746;7.072;2024-03-02T12:24:12;2.75;;;1.83;;
33716;SDS011;20046;50.746;7.072;2024-03-02T12:26:38;2.22;;;1.60;;
33716;SDS011;20046;50.746;7.072;2024-03-02T12:29:04;2.58;;;1.30;;
33716;SDS011;20046;50.746;7.072;2024-03-02T12:31:29;4.78;;;1.50;;
33716;SDS011;20046;50.746;7.072;2024-03-02T12:33:55;2.63;;;1.60;;
33716;SDS011;20046;50.746;7.072;2024-03-02T12:36:21;2.85;;;1.40;;
33716;SDS011;20046;50.746;7.072;2024-03-02T12:38:47;2.10;;;1.52;;
33716;SDS011;20046;50.746;7.072;2024-03-02T12:41:16;2.58;;;1.33;;
33716;SDS011;20046;50.746;7.072;2024-03-02T12:43:42;2.38;;;1.20;;
33716;SDS011;20046;50.746;7.072;2024-03-02T12:46:07;1.98;;;1.30;;
33716;SDS011;20046;50.746;7.072;2024-03-02T12:48:33;2.55;;;1.05;;
33716;SDS011;20046;50.746;7.072;2024-03-02T12:51:00;2.80;;;1.25;;
33716;SDS011;20046;50.746;7.072;2024-03-02T12:53:26;3.00;;;1.20;;
33716;SDS011;20046;50.746;7.072;2024-03-02T12:55:52;2.70;;;1.30;;
33716;SDS011;20046;50.746;7.072;2024-03-02T12:58:18;2.88;;;1.45;;
33716;SDS011;20046;50.746;7.072;2024-03-02T13:00:46;3.70;;;1.55;;
33716;SDS011;20046;50.746;7.072;2024-03-02T13:03:12;3.63;;;1.55;;
33716;SDS011;20046;50.746;7.072;2024-03-02T13:05:38;3.67;;;1.98;;
33716;SDS011;20046;50.746;7.072;2024-03-02T13:08:04;5.10;;;1.38;;
33716;SDS011;20046;50.746;7.072;2024-03-02T13:10:32;4.40;;;1.50;;
33716;SDS011;20046;50.746;7.072;2024-03-02T13:12:58;2.53;;;1.30;;
33716;SDS011;20046;50.746;7.072;2024-03-02T13:15:23;1.85;;;1.23;;
33716;SDS011;20046;50.746;7.072;2024-03-02T13:17:51;3.13;;;1.50;;
33716;SDS011;20046;50.746;7.072;2024-03-02T13:20:16;6.50;;;1.65;;
33716;SDS011;20046;50.746;7.072;2024-03-02T13:22:44;5.20;;;1.27;;
33716;SDS011;20046;50.746;7.072;2024-03-02T13:25:09;3.60;;;1.30;;
33716;SDS011;20046;50.746;7.072;2024-03-02T13:27:37;1.85;;;1.17;;
33716;SDS011;20046;50.746;7.072;2024-03-02T13:30:03;4.50;;;1.60;;
33716;SDS011;20046;50.746;7.072;2024-03-02T13:32:30;3.13;;;1.38;;
33716;SDS011;20046;50.746;7.072;2024-03-02T13:34:56;2.67;;;1.30;;
33716;SDS011;20046;50.746;7.072;2024-03-02T13:37:22;2.85;;;1.30;;
33716;SDS011;20046;50.746;7.072;2024-03-02T13:39:48;3.40;;;1.55;;
33716;SDS011;20046;50.746;7.072;2024-03-02T13:42:13;1.80;;;1.33;;
33716;SDS011;20046;50.746;7.072;2024-03-02T13:44:40;2.17;;;1.50;;
33716;SDS011;20046;50.746;7.072;2024-03-02T13:47:09;3.55;;;1.70;;
33716;SDS011;20046;50.746;7.072;2024-03-02T13:49:34;3.70;;;1.75;;
33716;SDS011;20046;50.746;7.072;2024-03-02T13:52:04;4.00;;;1.50;;
33716;SDS011;20046;50.746;7.072;2024-03-02T13:54:39;3.90;;;1.63;;
33716;SDS011;20046;50.746;7.072;2024-03-02T13:57:07;0.90;;;0.90;;
33716;SDS011;20046;50.746;7.072;2024-03-02T13:59:34;2.13;;;1.10;;
33716;SDS011;20046;50.746;7.072;2024-03-02T14:02:01;1.55;;;1.00;;
33716;SDS011;20046;50.746;7.072;2024-03-02T14:04:29;2.42;;;1.23;;
33716;SDS011;20046;50.746;7.072;2024-03-02T14:06:58;3.08;;;1.38;;
33716;SDS011;20046;50.746;7.072;2024-03-02T14:09:24;4.18;;;1.27;;
33716;SDS011;20046;50.746;7.072;2024-03-02T14:11:50;1.85;;;1.20;;
33716;SDS011;20046;50.746;7.072;2024-03-02T14:14:16;3.25;;;1.38;;
33716;SDS011;20046;50.746;7.072;2024-03-02T14:16:42;4.13;;;1.50;;
33716;SDS011;20046;50.746;7.072;2024-03-02T14:19:09;2.55;;;1.10;;
33716;SDS011;20046;50.746;7.072;2024-03-02T14:21:35;2.40;;;1.23;;
33716;SDS011;20046;50.746;7.072;2024-03-02T14:24:01;3.92;;;1.75;;
33716;SDS011;20046;50.746;7.072;2024-03-02T14:26:27;4.57;;;1.77;;
33716;SDS011;20046;50.746;7.072;2024-03-02T14:28:53;3.60;;;1.20;;
33716;SDS011;20046;50.746;7.072;2024-03-02T14:31:19;1.88;;;1.10;;
33716;SDS011;20046;50.746;7.072;2024-03-02T14:33:45;2.25;;;1.30;;
33716;SDS011;20046;50.746;7.072;2024-03-02T14:36:11;6.28;;;2.00;;
33716;SDS011;20046;50.746;7.072;2024-03-02T14:38:37;6.07;;;2.45;;
33716;SDS011;20046;50.746;7.072;2024-03-02T14:41:03;6.32;;;2.22;;
33716;SDS011;20046;50.746;7.072;2024-03-02T14:43:29;4.32;;;2.22;;
33716;SDS011;20046;50.746;7.072;2024-03-02T14:45:55;3.17;;;1.73;;
33716;SDS011;20046;50.746;7.072;2024-03-02T14:48:21;2.63;;;1.52;;
33716;SDS011;20046;50.746;7.072;2024-03-02T14:50:47;2.17;;;1.38;;
33716;SDS011;20046;50.746;7.072;2024-03-02T14:53:13;2.85;;;1.55;;
33716;SDS011;20046;50.746;7.072;2024-03-02T14:55:39;2.78;;;1.20;;
33716;SDS011;20046;50.746;7.072;2024-03-02T14:58:04;4.07;;;1.20;;
33716;SDS011;20046;50.746;7.072;2024-03-02T15:00:30;4.75;;;1.77;;
33716;SDS011;20046;50.746;7.072;2024-03-02T15:02:55;2.05;;;1.40;;
33716;SDS011;20046;50.746;7.072;2024-03-02T15:05:21;3.47;;;1.48;;
33716;SDS011;20046;50.746;7.072;2024-03-02T15:07:47;3.10;;;1.52;;